sensor_id;sensor_type;location;lat;lon;timestamp;P1;durP1;ratioP1;P2;durP2;ratioP2
21901;SDS011;11115;46.038;14.612;2024-03-02T00:02:15;30.20;;;20.53;;
21901;SDS011;11115;46.038;14.612;2024-03-02T00:04:52;33.63;;;21.50;;
21901;SDS011;11115;46.038;14.612;2024-03-02T00:07:30;45.20;;;23.50;;
21901;SDS011;11115;46.038;14.612;2024-03-02T00:10:10;40.03;;;22.97;;
21901;SDS011;11115;46.038;14.612;2024-03-02T00:12:39;33.60;;;23.67;;
21901;SDS011;11115;46.038;14.612;2024-03-02T00:21:17;27.10;;;17.90;;
21901;SDS011;11115;46.038;14.612;2024-03-02T00:23:59;27.37;;;18.73;;
21901;SDS011;11115;46.038;14.612;2024-03-02T00:26:30;31.23;;;20.47;;
21901;SDS011;11115;46.038;14.612;2024-03-02T00:29:08;41.53;;;20.80;;
21901;SDS011;11115;46.038;14.612;2024-03-02T00:31:52;31.30;;;17.13;;
21901;SDS011;11115;46.038;14.612;2024-03-02T00:34:29;34.17;;;20.60;;
21901;SDS011;11115;46.038;14.612;2024-03-02T00:37:09;34.33;;;20.47;;
21901;SDS011;11115;46.038;14.612;2024-03-02T00:39:42;45.10;;;27.57;;
21901;SDS011;11115;46.038;14.612;2024-03-02T00:42:20;36.80;;;22.73;;
21901;SDS011;11115;46.038;14.612;2024-03-02T00:44:56;37.20;;;21.73;;
21901;SDS011;11115;46.038;14.612;2024-03-02T00:47:39;44.37;;;24.97;;
21901;SDS011;11115;46.038;14.612;2024-03-02T00:50:15;34.13;;;21.13;;
21901;SDS011;11115;46.038;14.612;2024-03-02T00:52:59;31.50;;;18.83;;
21901;SDS011;11115;46.038;14.612;2024-03-02T00:55:35;35.77;;;21.40;;
21901;SDS011;11115;46.038;14.612;2024-03-02T00:58:19;34.70;;;20.80;;
21901;SDS011;11115;46.038;14.612;2024-03-02T01:00:56;29.13;;;18.13;;
21901;SDS011;11115;46.038;14.612;2024-03-02T01:03:35;26.53;;;16.50;;
21901;SDS011;11115;46.038;14.612;2024-03-02T01:06:09;23.27;;;16.43;;
21901;SDS011;11115;46.038;14.612;2024-03-02T01:08:44;22.97;;;17.23;;
21901;SDS011;11115;46.038;14.612;2024-03-02T01:11:21;26.00;;;18.23;;
21901;SDS011;11115;46.038;14.612;2024-03-02T01:13:54;27.93;;;18.90;;
21901;SDS011;11115;46.038;14.612;2024-03-02T01:16:33;25.10;;;17.57;;
21901;SDS011;11115;46.038;14.612;2024-03-02T01:19:09;21.07;;;17.27;;
21901;SDS011;11115;46.038;14.612;2024-03-02T01:21:39;24.93;;;17.50;;
21901;SDS011;11115;46.038;14.612;2024-03-02T01:24:14;26.30;;;17.20;;
21901;SDS011;11115;46.038;14.612;2024-03-02T01:26:51;28.63;;;19.70;;
21901;SDS011;11115;46.038;14.612;2024-03-02T01:29:30;28.67;;;19.00;;
21901;SDS011;11115;46.038;14.612;2024-03-02T01:32:10;31.87;;;20.50;;
21901;SDS011;11115;46.038;14.612;2024-03-02T01:34:44;37.40;;;20.77;;
21901;SDS011;11115;46.038;14.612;2024-03-02T01:37:35;41.92;;;21.08;;
21901;SDS011;11115;46.038;14.612;2024-03-02T01:40:06;45.70;;;25.53;;
21901;SDS011;11115;46.038;14.612;2024-03-02T01:42:40;46.40;;;27.10;;
21901;SDS011;11115;46.038;14.612;2024-03-02T01:45:12;68.13;;;30.03;;
21901;SDS011;11115;46.038;14.612;2024-03-02T01:47:42;68.10;;;26.60;;
21901;SDS011;11115;46.038;14.612;2024-03-02T01:50:14;67.57;;;29.27;;
21901;SDS011;11115;46.038;14.612;2024-03-02T01:52:51;49.87;;;24.67;;
21901;SDS011;11115;46.038;14.612;2024-03-02T01:55:31;56.70;;;27.10;;
21901;SDS011;11115;46.038;14.612;2024-03-02T01:58:16;110.83;;;32.03;;
21901;SDS011;11115;46.038;14.612;2024-03-02T02:00:44;64.07;;;28.93;;
21901;SDS011;11115;46.038;14.612;2024-03-02T02:03:13;91.30;;;32.17;;
21901;SDS011;11115;46.038;14.612;2024-03-02T02:05:56;86.17;;;29.17;;
21901;SDS011;11115;46.038;14.612;2024-03-02T02:08:29;165.20;;;31.80;;
21901;SDS011;11115;46.038;14.612;2024-03-02T02:11:06;192.13;;;35.20;;
21901;SDS011;11115;46.038;14.612;2024-03-02T02:13:37;67.97;;;34.23;;
21901;SDS011;11115;46.038;14.612;2024-03-02T02:16:14;71.77;;;30.37;;
21901;SDS011;11115;46.038;14.612;2024-03-02T02:18:47;54.20;;;31.23;;
21901;SDS011;11115;46.038;14.612;2024-03-02T02:21:23;98.07;;;34.00;;
21901;SDS011;11115;46.038;14.612;2024-03-02T02:24:06;69.60;;;35.00;;
21901;SDS011;11115;46.038;14.612;2024-03-02T02:26:37;56.03;;;32.80;;
21901;SDS011;11115;46.038;14.612;2024-03-02T02:29:17;48.53;;;31.13;;
21901;SDS011;11115;46.038;14.612;2024-03-02T02:31:51;59.57;;;29.60;;
21901;SDS011;11115;46.038;14.612;2024-03-02T02:34:33;68.27;;;31.83;;
21901;SDS011;11115;46.038;14.612;2024-03-02T02:37:06;84.10;;;34.47;;
21901;SDS011;11115;46.038;14.612;2024-03-02T02:39:37;63.88;;;29.95;;
21901;SDS011;11115;46.038;14.612;2024-03-02T02:42:11;72.60;;;34.17;;
21901;SDS011;11115;46.038;14.612;2024-03-02T02:44:46;79.83;;;33.60;;
21901;SDS011;11115;46.038;14.612;2024-03-02T02:47:21;60.00;;;30.10;;
21901;SDS011;11115;46.038;14.612;2024-03-02T02:49:53;61.80;;;32.27;;
21901;SDS011;11115;46.038;14.612;2024-03-02T02:52:31;57.67;;;29.93;;
21901;SDS011;11115;46.038;14.612;2024-03-02T02:55:12;93.38;;;35.53;;
21901;SDS011;11115;46.038;14.612;2024-03-02T02:57:42;82.33;;;36.17;;
21901;SDS011;11115;46.038;14.612;2024-03-02T03:00:18;69.37;;;35.93;;
21901;SDS011;11115;46.038;14.612;2024-03-02T03:02:54;87.37;;;33.17;;
21901;SDS011;11115;46.038;14.612;2024-03-02T03:05:28;78.53;;;31.30;;
21901;SDS011;11115;46.038;14.612;2024-03-02T03:08:06;64.93;;;30.63;;
21901;SDS011;11115;46.038;14.612;2024-03-02T03:10:44;108.60;;;33.67;;
21901;SDS011;11115;46.038;14.612;2024-03-02T03:13:33;58.40;;;30.87;;
21901;SDS011;11115;46.038;14.612;2024-03-02T03:16:11;90.57;;;32.73;;
21901;SDS011;11115;46.038;14.612;2024-03-02T03:18:43;98.50;;;32.43;;
21901;SDS011;11115;46.038;14.612;2024-03-02T03:21:14;106.25;;;33.22;;
21901;SDS011;11115;46.038;14.612;2024-03-02T03:23:48;86.47;;;34.00;;
21901;SDS011;11115;46.038;14.612;2024-03-02T03:26:25;73.97;;;31.83;;
21901;SDS011;11115;46.038;14.612;2024-03-02T03:28:59;73.67;;;34.73;;
21901;SDS011;11115;46.038;14.612;2024-03-02T03:31:29;101.20;;;36.27;;
21901;SDS011;11115;46.038;14.612;2024-03-02T03:34:07;70.33;;;34.00;;
21901;SDS011;11115;46.038;14.612;2024-03-02T03:36:49;59.00;;;33.22;;
21901;SDS011;11115;46.038;14.612;2024-03-02T03:39:33;61.50;;;33.83;;
21901;SDS011;11115;46.038;14.612;2024-03-02T03:42:08;57.27;;;33.90;;
21901;SDS011;11115;46.038;14.612;2024-03-02T03:44:44;54.40;;;31.13;;
21901;SDS011;11115;46.038;14.612;2024-03-02T03:47:22;59.20;;;32.07;;
21901;SDS011;11115;46.038;14.612;2024-03-02T03:49:58;54.83;;;31.30;;
21901;SDS011;11115;46.038;14.612;2024-03-02T03:55:13;51.90;;;30.07;;
21901;SDS011;11115;46.038;14.612;2024-03-02T03:57:50;66.93;;;33.53;;
21901;SDS011;11115;46.038;14.612;2024-03-02T04:00:27;68.63;;;37.00;;
21901;SDS011;11115;46.038;14.612;2024-03-02T04:03:07;64.80;;;34.67;;
21901;SDS011;11115;46.038;14.612;2024-03-02T04:05:44;59.60;;;35.70;;
21901;SDS011;11115;46.038;14.612;2024-03-02T04:08:18;74.87;;;36.07;;
21901;SDS011;11115;46.038;14.612;2024-03-02T04:10:52;62.43;;;34.03;;
21901;SDS011;11115;46.038;14.612;2024-03-02T04:13:26;71.32;;;34.10;;
21901;SDS011;11115;46.038;14.612;2024-03-02T04:15:56;72.07;;;38.20;;
21901;SDS011;11115;46.038;14.612;2024-03-02T04:18:26;60.87;;;35.47;;
21901;SDS011;11115;46.038;14.612;2024-03-02T04:21:02;64.67;;;35.27;;
21901;SDS011;11115;46.038;14.612;2024-03-02T04:23:33;57.40;;;30.67;;
21901;SDS011;11115;46.038;14.612;2024-03-02T04:26:09;70.10;;;37.03;;
21901;SDS011;11115;46.038;14.612;2024-03-02T04:28:42;68.47;;;35.97;;
21901;SDS011;11115;46.038;14.612;2024-03-02T04:31:21;60.37;;;35.07;;
21901;SDS011;11115;46.038;14.612;2024-03-02T04:33:55;66.37;;;35.10;;
21901;SDS011;11115;46.038;14.612;2024-03-02T04:36:31;66.27;;;35.47;;
21901;SDS011;11115;46.038;14.612;2024-03-02T04:39:00;69.47;;;36.93;;
21901;SDS011;11115;46.038;14.612;2024-03-02T04:41:32;64.93;;;34.55;;
21901;SDS011;11115;46.038;14.612;2024-03-02T04:44:06;70.37;;;35.73;;
21901;SDS011;11115;46.038;14.612;2024-03-02T04:46:45;71.20;;;36.67;;
21901;SDS011;11115;46.038;14.612;2024-03-02T04:52:00;64.93;;;34.53;;
21901;SDS011;11115;46.038;14.612;2024-03-02T04:54:31;70.57;;;33.67;;
21901;SDS011;11115;46.038;14.612;2024-03-02T04:57:32;68.17;;;33.67;;
21901;SDS011;11115;46.038;14.612;2024-03-02T05:00:06;45.50;;;26.80;;
21901;SDS011;11115;46.038;14.612;2024-03-02T05:02:39;48.67;;;25.57;;
21901;SDS011;11115;46.038;14.612;2024-03-02T05:05:25;43.80;;;24.97;;
21901;SDS011;11115;46.038;14.612;2024-03-02T05:07:55;39.87;;;24.40;;
21901;SDS011;11115;46.038;14.612;2024-03-02T05:10:36;45.42;;;23.95;;
21901;SDS011;11115;46.038;14.612;2024-03-02T05:13:08;40.87;;;24.23;;
21901;SDS011;11115;46.038;14.612;2024-03-02T05:15:38;45.73;;;25.50;;
21901;SDS011;11115;46.038;14.612;2024-03-02T05:18:09;43.20;;;23.13;;
21901;SDS011;11115;46.038;14.612;2024-03-02T05:20:41;48.57;;;27.93;;
21901;SDS011;11115;46.038;14.612;2024-03-02T05:23:18;42.60;;;24.77;;
21901;SDS011;11115;46.038;14.612;2024-03-02T05:25:53;48.83;;;26.87;;
21901;SDS011;11115;46.038;14.612;2024-03-02T05:28:26;49.20;;;26.73;;
21901;SDS011;11115;46.038;14.612;2024-03-02T05:30:58;62.07;;;31.00;;
21901;SDS011;11115;46.038;14.612;2024-03-02T05:33:32;59.70;;;30.03;;
21901;SDS011;11115;46.038;14.612;2024-03-02T05:36:14;49.83;;;28.33;;
21901;SDS011;11115;46.038;14.612;2024-03-02T05:38:50;62.87;;;28.83;;
21901;SDS011;11115;46.038;14.612;2024-03-02T05:41:23;71.73;;;30.90;;
21901;SDS011;11115;46.038;14.612;2024-03-02T05:44:02;61.13;;;31.33;;
21901;SDS011;11115;46.038;14.612;2024-03-02T05:46:39;60.67;;;30.50;;
21901;SDS011;11115;46.038;14.612;2024-03-02T05:49:11;61.53;;;30.07;;
21901;SDS011;11115;46.038;14.612;2024-03-02T05:51:45;77.93;;;33.33;;
21901;SDS011;11115;46.038;14.612;2024-03-02T05:54:25;72.97;;;35.00;;
21901;SDS011;11115;46.038;14.612;2024-03-02T05:56:59;79.83;;;34.97;;
21901;SDS011;11115;46.038;14.612;2024-03-02T05:59:54;65.33;;;31.10;;
21901;SDS011;11115;46.038;14.612;2024-03-02T06:02:26;73.87;;;34.40;;
21901;SDS011;11115;46.038;14.612;2024-03-02T06:05:06;59.70;;;30.60;;
21901;SDS011;11115;46.038;14.612;2024-03-02T06:07:40;61.80;;;29.30;;
21901;SDS011;11115;46.038;14.612;2024-03-02T06:10:14;58.60;;;31.07;;
21901;SDS011;11115;46.038;14.612;2024-03-02T06:12:48;55.93;;;25.80;;
21901;SDS011;11115;46.038;14.612;2024-03-02T06:15:26;64.00;;;31.33;;
21901;SDS011;11115;46.038;14.612;2024-03-02T06:18:01;76.37;;;31.57;;
21901;SDS011;11115;46.038;14.612;2024-03-02T06:20:42;59.30;;;30.10;;
21901;SDS011;11115;46.038;14.612;2024-03-02T06:23:15;69.97;;;33.50;;
21901;SDS011;11115;46.038;14.612;2024-03-02T06:25:47;74.67;;;33.03;;
21901;SDS011;11115;46.038;14.612;2024-03-02T06:28:23;62.27;;;29.73;;
21901;SDS011;11115;46.038;14.612;2024-03-02T06:30:56;58.60;;;31.13;;
21901;SDS011;11115;46.038;14.612;2024-03-02T06:33:30;74.13;;;36.90;;
21901;SDS011;11115;46.038;14.612;2024-03-02T06:36:12;69.10;;;31.97;;
21901;SDS011;11115;46.038;14.612;2024-03-02T06:38:50;72.37;;;36.00;;
21901;SDS011;11115;46.038;14.612;2024-03-02T06:41:30;74.20;;;33.60;;
21901;SDS011;11115;46.038;14.612;2024-03-02T06:44:19;72.20;;;36.07;;
21901;SDS011;11115;46.038;14.612;2024-03-02T06:46:52;71.83;;;34.77;;
21901;SDS011;11115;46.038;14.612;2024-03-02T06:49:28;61.33;;;31.47;;
21901;SDS011;11115;46.038;14.612;2024-03-02T06:52:02;60.70;;;30.40;;
21901;SDS011;11115;46.038;14.612;2024-03-02T06:54:41;60.77;;;30.17;;
21901;SDS011;11115;46.038;14.612;2024-03-02T06:57:18;64.10;;;32.63;;
21901;SDS011;11115;46.038;14.612;2024-03-02T06:59:54;57.70;;;30.83;;
21901;SDS011;11115;46.038;14.612;2024-03-02T07:02:27;68.67;;;32.50;;
21901;SDS011;11115;46.038;14.612;2024-03-02T07:05:03;73.50;;;34.57;;
21901;SDS011;11115;46.038;14.612;2024-03-02T07:07:46;71.93;;;32.53;;
21901;SDS011;11115;46.038;14.612;2024-03-02T07:10:24;75.97;;;36.80;;
21901;SDS011;11115;46.038;14.612;2024-03-02T07:12:53;85.03;;;36.63;;
21901;SDS011;11115;46.038;14.612;2024-03-02T07:15:29;83.90;;;38.00;;
21901;SDS011;11115;46.038;14.612;2024-03-02T07:18:15;79.53;;;37.07;;
21901;SDS011;11115;46.038;14.612;2024-03-02T07:20:56;79.37;;;38.10;;
21901;SDS011;11115;46.038;14.612;2024-03-02T07:23:31;83.53;;;41.33;;
21901;SDS011;11115;46.038;14.612;2024-03-02T07:26:02;90.93;;;39.30;;
21901;SDS011;11115;46.038;14.612;2024-03-02T07:31:30;58.93;;;29.20;;
21901;SDS011;11115;46.038;14.612;2024-03-02T07:34:07;56.90;;;30.77;;
21901;SDS011;11115;46.038;14.612;2024-03-02T07:36:52;69.47;;;33.67;;
21901;SDS011;11115;46.038;14.612;2024-03-02T07:39:27;58.73;;;32.47;;
21901;SDS011;11115;46.038;14.612;2024-03-02T07:42:02;58.90;;;32.23;;
21901;SDS011;11115;46.038;14.612;2024-03-02T07:44:40;52.10;;;30.73;;
21901;SDS011;11115;46.038;14.612;2024-03-02T07:47:15;58.87;;;32.10;;
21901;SDS011;11115;46.038;14.612;2024-03-02T07:49:53;56.97;;;30.50;;
21901;SDS011;11115;46.038;14.612;2024-03-02T07:52:42;53.33;;;29.33;;
21901;SDS011;11115;46.038;14.612;2024-03-02T07:55:22;60.47;;;30.37;;
21901;SDS011;11115;46.038;14.612;2024-03-02T07:58:03;51.37;;;29.33;;
21901;SDS011;11115;46.038;14.612;2024-03-02T08:00:41;54.80;;;30.63;;
21901;SDS011;11115;46.038;14.612;2024-03-02T08:03:23;52.03;;;28.85;;
21901;SDS011;11115;46.038;14.612;2024-03-02T08:06:02;52.73;;;28.63;;
21901;SDS011;11115;46.038;14.612;2024-03-02T08:08:44;48.05;;;27.42;;
21901;SDS011;11115;46.038;14.612;2024-03-02T08:11:23;47.72;;;26.70;;
21901;SDS011;11115;46.038;14.612;2024-03-02T08:13:53;51.53;;;30.57;;
21901;SDS011;11115;46.038;14.612;2024-03-02T08:16:27;50.87;;;30.43;;
21901;SDS011;11115;46.038;14.612;2024-03-02T08:19:01;49.90;;;29.63;;
21901;SDS011;11115;46.038;14.612;2024-03-02T08:21:35;46.20;;;28.47;;
21901;SDS011;11115;46.038;14.612;2024-03-02T08:24:06;38.40;;;25.33;;
21901;SDS011;11115;46.038;14.612;2024-03-02T08:26:42;38.38;;;26.52;;
21901;SDS011;11115;46.038;14.612;2024-03-02T08:29:31;44.53;;;26.47;;
21901;SDS011;11115;46.038;14.612;2024-03-02T08:32:02;40.30;;;25.00;;
21901;SDS011;11115;46.038;14.612;2024-03-02T08:34:34;40.07;;;23.87;;
21901;SDS011;11115;46.038;14.612;2024-03-02T08:37:12;41.17;;;25.17;;
21901;SDS011;11115;46.038;14.612;2024-03-02T08:39:46;34.67;;;22.87;;
21901;SDS011;11115;46.038;14.612;2024-03-02T08:42:24;35.03;;;22.83;;
21901;SDS011;11115;46.038;14.612;2024-03-02T08:44:58;42.23;;;26.17;;
21901;SDS011;11115;46.038;14.612;2024-03-02T08:47:30;33.70;;;23.10;;
21901;SDS011;11115;46.038;14.612;2024-03-02T08:50:02;37.17;;;24.20;;
21901;SDS011;11115;46.038;14.612;2024-03-02T08:52:43;36.73;;;24.63;;
21901;SDS011;11115;46.038;14.612;2024-03-02T08:55:20;39.63;;;24.47;;
21901;SDS011;11115;46.038;14.612;2024-03-02T08:57:56;41.87;;;25.43;;
21901;SDS011;11115;46.038;14.612;2024-03-02T09:00:32;34.10;;;23.23;;
21901;SDS011;11115;46.038;14.612;2024-03-02T09:03:05;37.10;;;25.57;;
21901;SDS011;11115;46.038;14.612;2024-03-02T09:05:44;37.13;;;22.93;;
21901;SDS011;11115;46.038;14.612;2024-03-02T09:08:16;33.00;;;22.57;;
21901;SDS011;11115;46.038;14.612;2024-03-02T09:10:58;39.63;;;24.98;;
21901;SDS011;11115;46.038;14.612;2024-03-02T09:13:32;40.00;;;24.47;;
21901;SDS011;11115;46.038;14.612;2024-03-02T09:16:04;40.07;;;26.13;;
21901;SDS011;11115;46.038;14.612;2024-03-02T09:18:39;35.90;;;24.63;;
21901;SDS011;11115;46.038;14.612;2024-03-02T09:21:13;40.53;;;24.67;;
21901;SDS011;11115;46.038;14.612;2024-03-02T09:23:48;34.97;;;24.93;;
21901;SDS011;11115;46.038;14.612;2024-03-02T09:26:19;35.77;;;23.67;;
21901;SDS011;11115;46.038;14.612;2024-03-02T09:28:55;39.60;;;24.47;;
21901;SDS011;11115;46.038;14.612;2024-03-02T09:31:30;35.60;;;24.20;;
21901;SDS011;11115;46.038;14.612;2024-03-02T09:34:09;44.00;;;26.27;;
21901;SDS011;11115;46.038;14.612;2024-03-02T09:36:50;41.07;;;26.40;;
21901;SDS011;11115;46.038;14.612;2024-03-02T09:39:25;37.17;;;25.70;;
21901;SDS011;11115;46.038;14.612;2024-03-02T09:42:05;40.83;;;23.93;;
21901;SDS011;11115;46.038;14.612;2024-03-02T09:44:36;37.40;;;23.47;;
21901;SDS011;11115;46.038;14.612;2024-03-02T09:47:08;38.23;;;25.67;;
21901;SDS011;11115;46.038;14.612;2024-03-02T09:49:45;40.43;;;26.10;;
21901;SDS011;11115;46.038;14.612;2024-03-02T09:52:20;40.10;;;26.33;;
21901;SDS011;11115;46.038;14.612;2024-03-02T09:54:59;38.30;;;24.03;;
21901;SDS011;11115;46.038;14.612;2024-03-02T09:57:46;34.23;;;23.40;;
21901;SDS011;11115;46.038;14.612;2024-03-02T10:00:22;44.00;;;25.50;;
21901;SDS011;11115;46.038;14.612;2024-03-02T10:02:59;41.43;;;25.37;;
21901;SDS011;11115;46.038;14.612;2024-03-02T10:05:35;38.40;;;24.77;;
21901;SDS011;11115;46.038;14.612;2024-03-02T10:08:23;35.93;;;25.37;;
21901;SDS011;11115;46.038;14.612;2024-03-02T10:10:58;39.57;;;24.43;;
21901;SDS011;11115;46.038;14.612;2024-03-02T10:13:30;33.07;;;23.40;;
21901;SDS011;11115;46.038;14.612;2024-03-02T10:16:19;42.37;;;23.07;;
21901;SDS011;11115;46.038;14.612;2024-03-02T10:18:57;31.73;;;20.70;;
21901;SDS011;11115;46.038;14.612;2024-03-02T10:21:54;36.60;;;22.60;;
21901;SDS011;11115;46.038;14.612;2024-03-02T10:24:39;35.13;;;22.97;;
21901;SDS011;11115;46.038;14.612;2024-03-02T10:27:25;30.48;;;21.40;;
21901;SDS011;11115;46.038;14.612;2024-03-02T10:30:07;35.10;;;24.27;;
21901;SDS011;11115;46.038;14.612;2024-03-02T10:33:05;34.07;;;21.00;;
21901;SDS011;11115;46.038;14.612;2024-03-02T10:35:39;30.90;;;21.63;;
21901;SDS011;11115;46.038;14.612;2024-03-02T10:38:11;29.77;;;19.77;;
21901;SDS011;11115;46.038;14.612;2024-03-02T10:40:46;29.60;;;20.13;;
21901;SDS011;11115;46.038;14.612;2024-03-02T10:43:18;30.63;;;22.40;;
21901;SDS011;11115;46.038;14.612;2024-03-02T10:45:49;31.47;;;22.23;;
21901;SDS011;11115;46.038;14.612;2024-03-02T10:48:35;32.13;;;21.57;;
21901;SDS011;11115;46.038;14.612;2024-03-02T10:51:11;32.27;;;21.60;;
21901;SDS011;11115;46.038;14.612;2024-03-02T10:53:42;38.05;;;23.27;;
21901;SDS011;11115;46.038;14.612;2024-03-02T10:56:43;33.20;;;22.73;;
21901;SDS011;11115;46.038;14.612;2024-03-02T10:59:19;29.60;;;20.03;;
21901;SDS011;11115;46.038;14.612;2024-03-02T11:01:59;18.20;;;13.13;;
21901;SDS011;11115;46.038;14.612;2024-03-02T11:04:33;21.43;;;14.93;;
21901;SDS011;11115;46.038;14.612;2024-03-02T11:07:09;22.67;;;15.00;;
21901;SDS011;11115;46.038;14.612;2024-03-02T11:09:57;23.13;;;13.83;;
21901;SDS011;11115;46.038;14.612;2024-03-02T11:15:44;22.98;;;14.35;;
21901;SDS011;11115;46.038;14.612;2024-03-02T11:18:19;21.07;;;13.80;;
21901;SDS011;11115;46.038;14.612;2024-03-02T11:20:54;26.60;;;16.30;;
21901;SDS011;11115;46.038;14.612;2024-03-02T11:23:34;21.10;;;13.45;;
21901;SDS011;11115;46.038;14.612;2024-03-02T11:26:20;24.87;;;15.03;;
21901;SDS011;11115;46.038;14.612;2024-03-02T11:28:59;18.50;;;13.52;;
21901;SDS011;11115;46.038;14.612;2024-03-02T11:34:32;18.30;;;12.88;;
21901;SDS011;11115;46.038;14.612;2024-03-02T11:37:08;18.17;;;12.80;;
21901;SDS011;11115;46.038;14.612;2024-03-02T11:39:51;24.98;;;15.43;;
21901;SDS011;11115;46.038;14.612;2024-03-02T11:42:27;25.48;;;14.13;;
21901;SDS011;11115;46.038;14.612;2024-03-02T11:45:02;20.65;;;14.55;;
21901;SDS011;11115;46.038;14.612;2024-03-02T11:47:36;18.58;;;14.07;;
21901;SDS011;11115;46.038;14.612;2024-03-02T11:50:10;19.80;;;13.70;;
21901;SDS011;11115;46.038;14.612;2024-03-02T11:52:48;20.45;;;13.82;;
21901;SDS011;11115;46.038;14.612;2024-03-02T11:55:25;19.25;;;13.48;;
21901;SDS011;11115;46.038;14.612;2024-03-02T11:57:59;17.17;;;12.07;;
21901;SDS011;11115;46.038;14.612;2024-03-02T12:00:32;15.32;;;10.95;;
21901;SDS011;11115;46.038;14.612;2024-03-02T12:03:15;15.80;;;11.00;;
21901;SDS011;11115;46.038;14.612;2024-03-02T12:05:44;15.25;;;10.23;;
21901;SDS011;11115;46.038;14.612;2024-03-02T12:08:39;12.73;;;9.57;;
21901;SDS011;11115;46.038;14.612;2024-03-02T12:11:19;11.38;;;7.95;;
21901;SDS011;11115;46.038;14.612;2024-03-02T12:13:55;13.27;;;8.35;;
21901;SDS011;11115;46.038;14.612;2024-03-02T12:16:28;17.20;;;7.35;;
21901;SDS011;11115;46.038;14.612;2024-03-02T12:19:09;9.35;;;6.25;;
21901;SDS011;11115;46.038;14.612;2024-03-02T12:21:39;11.38;;;6.22;;
21901;SDS011;11115;46.038;14.612;2024-03-02T12:24:20;14.05;;;6.00;;
21901;SDS011;11115;46.038;14.612;2024-03-02T12:26:55;9.82;;;5.97;;
21901;SDS011;11115;46.038;14.612;2024-03-02T12:29:32;13.90;;;7.22;;
21901;SDS011;11115;46.038;14.612;2024-03-02T12:32:10;7.15;;;5.18;;
21901;SDS011;11115;46.038;14.612;2024-03-02T12:34:53;10.00;;;6.10;;
21901;SDS011;11115;46.038;14.612;2024-03-02T12:37:29;10.45;;;4.93;;
21901;SDS011;11115;46.038;14.612;2024-03-02T12:40:15;5.95;;;4.18;;
21901;SDS011;11115;46.038;14.612;2024-03-02T12:42:55;7.25;;;4.25;;
21901;SDS011;11115;46.038;14.612;2024-03-02T12:45:28;8.85;;;5.78;;
21901;SDS011;11115;46.038;14.612;2024-03-02T12:48:06;6.88;;;5.63;;
21901;SDS011;11115;46.038;14.612;2024-03-02T12:50:45;8.93;;;5.32;;
21901;SDS011;11115;46.038;14.612;2024-03-02T12:53:18;6.72;;;4.78;;
21901;SDS011;11115;46.038;14.612;2024-03-02T12:55:52;7.68;;;4.85;;
21901;SDS011;11115;46.038;14.612;2024-03-02T12:58:38;6.57;;;5.03;;
21901;SDS011;11115;46.038;14.612;2024-03-02T13:01:14;10.32;;;5.57;;
21901;SDS011;11115;46.038;14.612;2024-03-02T13:03:54;12.45;;;4.90;;
21901;SDS011;11115;46.038;14.612;2024-03-02T13:06:26;7.93;;;3.95;;
21901;SDS011;11115;46.038;14.612;2024-03-02T13:09:05;8.73;;;5.82;;
21901;SDS011;11115;46.038;14.612;2024-03-02T13:11:48;8.10;;;5.55;;
21901;SDS011;11115;46.038;14.612;2024-03-02T13:14:21;7.20;;;4.10;;
21901;SDS011;11115;46.038;14.612;2024-03-02T13:17:03;5.57;;;3.92;;
21901;SDS011;11115;46.038;14.612;2024-03-02T13:19:38;6.80;;;4.57;;
21901;SDS011;11115;46.038;14.612;2024-03-02T13:22:20;9.48;;;5.60;;
21901;SDS011;11115;46.038;14.612;2024-03-02T13:24:59;9.18;;;4.57;;
21901;SDS011;11115;46.038;14.612;2024-03-02T13:27:49;8.15;;;4.68;;
21901;SDS011;11115;46.038;14.612;2024-03-02T13:30:22;6.38;;;4.13;;
21901;SDS011;11115;46.038;14.612;2024-03-02T13:32:59;6.67;;;4.33;;
21901;SDS011;11115;46.038;14.612;2024-03-02T13:35:35;5.03;;;4.13;;
21901;SDS011;11115;46.038;14.612;2024-03-02T13:38:14;4.10;;;3.00;;
21901;SDS011;11115;46.038;14.612;2024-03-02T13:40:49;3.97;;;2.63;;
21901;SDS011;11115;46.038;14.612;2024-03-02T13:43:20;5.85;;;3.10;;
21901;SDS011;11115;46.038;14.612;2024-03-02T13:45:54;3.83;;;2.83;;
21901;SDS011;11115;46.038;14.612;2024-03-02T13:48:26;4.05;;;2.58;;
21901;SDS011;11115;46.038;14.612;2024-03-02T13:51:01;3.42;;;2.50;;
21901;SDS011;11115;46.038;14.612;2024-03-02T13:53:34;1.40;;;1.30;;
21901;SDS011;11115;46.038;14.612;2024-03-02T13:56:06;1.27;;;1.02;;
21901;SDS011;11115;46.038;14.612;2024-03-02T13:58:43;1.60;;;1.02;;
21901;SDS011;11115;46.038;14.612;2024-03-02T14:01:20;3.00;;;1.50;;
21901;SDS011;11115;46.038;14.612;2024-03-02T14:03:57;1.67;;;0.90;;
21901;SDS011;11115;46.038;14.612;2024-03-02T14:06:31;20.02;;;6.35;;
21901;SDS011;11115;46.038;14.612;2024-03-02T14:09:06;1.25;;;0.90;;
21901;SDS011;11115;46.038;14.612;2024-03-02T14:11:40;2.03;;;1.23;;
21901;SDS011;11115;46.038;14.612;2024-03-02T14:14:16;2.20;;;1.40;;
21901;SDS011;11115;46.038;14.612;2024-03-02T14:16:51;18.33;;;2.35;;
21901;SDS011;11115;46.038;14.612;2024-03-02T14:19:34;5.97;;;1.75;;
21901;SDS011;11115;46.038;14.612;2024-03-02T14:22:15;2.40;;;1.42;;
21901;SDS011;11115;46.038;14.612;2024-03-02T14:24:49;4.93;;;1.75;;
21901;SDS011;11115;46.038;14.612;2024-03-02T14:27:21;25.25;;;7.35;;
21901;SDS011;11115;46.038;14.612;2024-03-02T14:30:14;4.55;;;2.33;;
21901;SDS011;11115;46.038;14.612;2024-03-02T14:32:47;9.93;;;2.58;;
21901;SDS011;11115;46.038;14.612;2024-03-02T14:37:51;1.40;;;1.15;;
21901;SDS011;11115;46.038;14.612;2024-03-02T14:40:26;0.85;;;0.80;;
21901;SDS011;11115;46.038;14.612;2024-03-02T14:43:00;3.13;;;1.55;;
21901;SDS011;11115;46.038;14.612;2024-03-02T14:45:35;3.03;;;2.10;;
21901;SDS011;11115;46.038;14.612;2024-03-02T14:48:07;5.22;;;1.70;;
21901;SDS011;11115;46.038;14.612;2024-03-02T14:50:36;2.55;;;1.05;;
21901;SDS011;11115;46.038;14.612;2024-03-02T14:53:13;0.60;;;0.60;;
21901;SDS011;11115;46.038;14.612;2024-03-02T14:55:44;1.17;;;0.60;;
21901;SDS011;11115;46.038;14.612;2024-03-02T14:58:15;4.22;;;0.60;;
21901;SDS011;11115;46.038;14.612;2024-03-02T15:00:48;1.15;;;0.20;;
21901;SDS011;11115;46.038;14.612;2024-03-02T15:03:24;0.90;;;0.40;;
21901;SDS011;11115;46.038;14.612;2024-03-02T15:06:01;0.60;;;0.60;;
21901;SDS011;11115;46.038;14.612;2024-03-02T15:08:38;1.60;;;1.03;;
21901;SDS011;11115;46.038;14.612;2024-03-02T15:11:20;3.67;;;0.68;;
21901;SDS011;11115;46.038;14.612;2024-03-02T15:14:10;9.32;;;3.42;;
21901;SDS011;11115;46.038;14.612;2024-03-02T15:16:47;1.03;;;0.50;;
21901;SDS011;11115;46.038;14.612;2024-03-02T15:19:20;1.17;;;0.67;;
21901;SDS011;11115;46.038;14.612;2024-03-02T15:21:56;0.57;;;0.50;;
21901;SDS011;11115;46.038;14.612;2024-03-02T15:24:27;0.53;;;0.30;;
21901;SDS011;11115;46.038;14.612;2024-03-02T15:29:41;0.47;;;0.30;;
21901;SDS011;11115;46.038;14.612;2024-03-02T15:32:12;0.30;;;0.30;;
21901;SDS011;11115;46.038;14.612;2024-03-02T15:34:46;0.63;;;0.37;;